Terminal Aerodrome Forecast
Issued by NWS Atlanta, GA

Home | Current Version | Previous Version | Text Only | Print | Product List | Glossary On
Versions: 1 2 3 4 5 6 7 8 9 10 11 12 13 14 15 16
000
FTUS42 KFFC 220500
TAFMCN
TAF
KMCN 220524Z 2206/2306 28003KT P6SM FEW250
      TEMPO 2209/2213 5SM BR FEW010
     FM221500 29006KT P6SM FEW040
     FM221700 31008KT P6SM SCT050
     FM230100 28004KT P6SM FEW070 SCT250=

USA.gov is the U.S. government's official web portal to all federal, state and local government web resources and services.